Time;durP1;ratioP1;P1;durP2;ratioP2;P2;SDS_P1;SDS_P2;PMS_P1;PMS_P2;Temp;Humidity;BMP_temperature;BMP_pressure;BME280_temperature;BME280_humidity;BME280_pressure;Samples;Min_cycle;Max_cycle;Signal;HPM_P1;HPM_P2
2022/05/16 00:02:22;;;;;;;21.60;2.80;;;;;;;24.26;53.54;99751.53;7308437;19;130552;-37
2022/05/16 00:04:49;;;;;;;38.40;3.70;;;;;;;24.25;52.93;99749.06;7306983;19;130332;-38
2022/05/16 00:07:17;;;;;;;20.40;2.45;;;;;;;24.17;53.33;99741.97;7304819;19;129919;-36
2022/05/16 00:09:42;;;;;;;22.65;2.67;;;;;;;24.15;53.08;99733.41;7307064;19;130155;-39
2022/05/16 00:12:09;;;;;;;35.45;3.70;;;;;;;24.25;53.33;99749.06;7305614;19;129457;-41
2022/05/16 00:14:36;;;;;;;27.70;2.92;;;;;;;24.21;53.45;99743.28;7305184;19;130935;-36
2022/05/16 00:17:01;;;;;;;;;;;;;;;24.34;54.00;99733.22;7301582;19;130521;-36
2022/05/16 00:19:27;;;;;;;15.50;2.33;;;;;;;24.29;53.37;99745.16;7305818;19;130051;-38
2022/05/16 00:21:52;;;;;;;16.03;2.47;;;;;;;24.26;52.73;99748.09;7312517;19;158268;-40
2022/05/16 00:24:20;;;;;;;41.73;4.20;;;;;;;24.23;52.75;99745.75;7311324;19;158824;-36
2022/05/16 00:26:45;;;;;;;31.70;3.50;;;;;;;24.20;53.26;99746.91;7310942;19;129003;-36
2022/05/16 00:29:10;;;;;;;50.10;5.40;;;;;;;24.22;53.04;99749.38;7312770;19;148554;-38
2022/05/16 00:31:35;;;;;;;25.15;2.85;;;;;;;24.25;53.50;99747.28;7314122;19;129521;-38
2022/05/16 00:34:01;;;;;;;34.40;3.63;;;;;;;24.23;53.08;99749.22;7312440;19;158395;-38
2022/05/16 00:36:26;;;;;;;26.90;2.93;;;;;;;24.25;52.85;99755.16;7311211;19;130435;-41
2022/05/16 00:38:54;;;;;;;8.57;1.60;;;;;;;24.23;53.10;99761.53;7311365;19;154999;-37
2022/05/16 00:41:20;;;;;;;26.45;3.28;;;;;;;24.21;53.45;99759.06;7313673;19;129462;-39
2022/05/16 00:43:55;;;;;;;27.03;2.73;;;;;;;24.28;53.37;99757.47;7314918;19;129854;-38
2022/05/16 00:46:22;;;;;;;30.98;2.88;;;;;;;24.23;53.40;99762.34;7311242;19;128945;-39
2022/05/16 00:48:48;;;;;;;;;;;;;;;24.33;53.58;99755.22;7314820;19;129847;-38
2022/05/16 00:51:22;;;;;;;26.10;3.10;;;;;;;24.23;53.99;99762.34;7313090;19;129708;-39
2022/05/16 00:53:50;;;;;;;39.20;4.05;;;;;;;24.23;53.47;99761.53;7312883;19;129870;-38
2022/05/16 00:56:17;;;;;;;37.33;3.83;;;;;;;24.12;53.37;99743.38;7310583;19;129305;-38
2022/05/16 00:58:43;;;;;;;28.42;2.95;;;;;;;24.17;53.37;99752.47;7312717;19;129984;-37
2022/05/16 01:04:47;;;;;;;25.13;2.73;;;;;;;24.23;53.61;99762.34;7313260;19;130552;-36
2022/05/16 01:06:41;;;;;;;20.50;2.55;;;;;;;24.23;53.33;99759.72;7313738;19;129150;-37
2022/05/16 01:09:07;;;;;;;23.67;2.97;;;;;;;24.22;53.86;99765.13;7315691;19;129266;-38
2022/05/16 01:11:35;;;;;;;30.27;3.20;;;;;;;24.25;53.11;99762.19;7315096;19;129668;-36
2022/05/16 01:14:00;;;;;;;42.45;4.32;;;;;;;24.20;53.94;99757.41;7312661;19;129320;-39
2022/05/16 01:16:25;;;;;;;29.75;3.03;;;;;;;24.25;53.17;99770.09;7310325;19;131311;-41
2022/05/16 01:18:50;;;;;;;21.50;2.47;;;;;;;24.23;53.45;99759.72;7312787;19;129428;-40
2022/05/16 01:21:36;;;;;;;36.97;3.95;;;;;;;24.24;53.50;99757.94;7309829;19;159140;-38
2022/05/16 01:24:14;;;;;;;36.55;3.40;;;;;;;24.23;52.89;99766.78;7313886;19;130410;-39
2022/05/16 01:26:41;;;;;;;24.63;2.50;;;;;;;24.19;53.68;99761.03;7308723;19;131020;-40
2022/05/16 01:29:07;;;;;;;10.13;1.30;;;;;;;24.19;53.13;99755.78;7314708;19;130064;-40
2022/05/16 01:31:33;;;;;;;22.67;2.55;;;;;;;24.24;53.85;99763.19;7307152;19;130142;-40
2022/05/16 01:33:59;;;;;;;28.70;3.35;;;;;;;24.22;53.68;99755.47;7313999;19;130053;-39
2022/05/16 01:36:24;;;;;;;54.95;5.60;;;;;;;24.24;53.35;99757.94;7306515;19;130540;-39
2022/05/16 01:38:49;;;;;;;16.70;1.87;;;;;;;24.22;53.32;99750.22;7312149;19;140173;-40
2022/05/16 01:41:18;;;;;;;17.58;2.33;;;;;;;24.22;54.07;99747.59;7309812;19;157794;-38
2022/05/16 01:43:47;;;;;;;12.48;1.77;;;;;;;24.20;53.87;99744.28;7313007;19;131286;-39
2022/05/16 01:46:16;;;;;;;30.60;3.50;;;;;;;24.21;53.38;99747.75;7309360;19;130024;-40
2022/05/16 01:48:41;;;;;;;22.45;2.40;;;;;;;24.20;53.45;99735.56;7312605;19;130264;-39
2022/05/16 01:51:09;;;;;;;25.30;2.58;;;;;;;24.21;54.17;99742.47;7312070;19;129544;-40
2022/05/16 01:53:35;;;;;;;19.60;2.38;;;;;;;24.23;54.10;99735.25;7312718;19;130579;-39
2022/05/16 01:56:00;;;;;;;20.97;2.53;;;;;;;24.22;53.21;99733.59;7311469;19;130891;-40
2022/05/16 01:58:26;;;;;;;23.70;3.17;;;;;;;24.21;53.28;99737.22;7310584;19;138753;-39
2022/05/16 02:00:52;;;;;;;36.67;3.57;;;;;;;24.14;53.57;99716.00;7311294;19;158258;-37
2022/05/16 02:03:17;;;;;;;11.00;1.70;;;;;;;24.16;53.13;99723.72;7311878;19;129563;-40
2022/05/16 02:05:44;;;;;;;15.95;2.00;;;;;;;24.23;53.80;99730.00;7311714;19;129206;-38
2022/05/16 02:08:10;;;;;;;;;;;;;;;24.29;53.92;99724.97;7312362;19;130711;-38
2022/05/16 02:10:36;;;;;;;15.27;1.45;;;;;;;24.12;52.58;99707.44;7313466;19;129720;-39
2022/05/16 02:13:03;;;;;;;75.90;7.35;;;;;;;24.21;53.09;99719.63;7310063;19;130730;-41
2022/05/16 02:15:31;;;;;;;40.22;4.72;;;;;;;24.21;52.20;99719.63;7310649;19;130224;-40
2022/05/16 02:17:57;;;;;;;11.95;1.50;;;;;;;24.13;53.69;99685.44;7311682;19;129007;-35
2022/05/16 02:20:22;;;;;;;23.67;2.58;;;;;;;24.25;53.79;99702.59;7309137;19;131076;-37
2022/05/16 02:25:34;;;;;;;33.47;3.40;;;;;;;24.21;53.99;99690.75;7310196;19;130987;-37
2022/05/16 02:27:59;;;;;;;17.75;2.15;;;;;;;24.22;53.52;99699.47;7311905;19;131714;-37
2022/05/16 02:30:25;;;;;;;21.63;2.40;;;;;;;24.13;53.53;99685.44;7308361;19;158588;-37
2022/05/16 02:32:50;;;;;;;17.27;1.87;;;;;;;24.25;53.97;99701.78;7312591;19;129211;-37
2022/05/16 02:35:17;;;;;;;37.63;3.83;;;;;;;24.16;53.66;99684.31;7310189;19;129593;-37
2022/05/16 02:37:42;;;;;;;;;;;;;;;24.33;53.41;99700.03;7309761;19;129905;-37
2022/05/16 02:40:09;;;;;;;34.20;3.50;;;;;;;24.25;53.56;99699.97;7310714;19;130000;-37
2022/05/16 02:42:34;;;;;;;47.03;4.57;;;;;;;24.21;53.97;99696.00;7310025;19;131039;-37
2022/05/16 02:44:59;;;;;;;31.65;3.08;;;;;;;24.23;53.47;99694.03;7310263;19;129668;-37
2022/05/16 02:47:25;;;;;;;12.13;1.58;;;;;;;24.24;53.03;99690.47;7306233;19;151966;-37
2022/05/16 02:49:51;;;;;;;36.43;3.27;;;;;;;24.22;52.96;99702.91;7310834;19;132132;-37
2022/05/16 02:52:17;;;;;;;35.17;3.63;;;;;;;24.19;52.91;99691.88;7308078;19;130063;-37
2022/05/16 02:54:42;;;;;;;31.50;3.63;;;;;;;24.19;53.41;99686.63;7308881;19;129739;-37
2022/05/16 02:57:08;;;;;;;30.20;2.90;;;;;;;24.17;53.82;99686.78;7309150;19;129820;-37
2022/05/16 02:59:36;;;;;;;22.55;2.25;;;;;;;24.19;53.21;99692.72;7308229;19;130044;-37
2022/05/16 03:02:04;;;;;;;35.85;3.65;;;;;;;24.18;54.20;99695.50;7309795;19;129524;-37
2022/05/16 03:04:30;;;;;;;34.78;3.17;;;;;;;24.20;53.48;99693.53;7307887;19;131059;-37
2022/05/16 03:06:55;;;;;;;33.37;3.53;;;;;;;24.21;54.01;99693.38;7307041;19;129835;-38
2022/05/16 03:09:21;;;;;;;27.88;2.88;;;;;;;24.21;53.29;99690.75;7311534;19;130351;-37
2022/05/16 03:11:47;;;;;;;28.37;2.70;;;;;;;24.18;53.54;99680.53;7309385;19;129439;-37
2022/05/16 03:14:12;;;;;;;39.23;3.73;;;;;;;24.22;53.16;99683.69;7308264;19;129038;-37
2022/05/16 03:16:38;;;;;;;31.47;2.73;;;;;;;24.25;52.97;99694.72;7307249;19;154393;-37
2022/05/16 03:19:04;;;;;;;25.48;2.92;;;;;;;24.19;52.86;99684.84;7307326;19;131449;-37
2022/05/16 03:21:30;;;;;;;8.67;1.03;;;;;;;24.21;53.60;99684.69;7311463;19;129721;-37
2022/05/16 03:23:55;;;;;;;26.20;3.08;;;;;;;24.21;53.70;99682.06;7310122;19;129917;-37
2022/05/16 03:26:20;;;;;;;27.60;2.75;;;;;;;24.23;53.87;99682.69;7308631;19;129181;-37
2022/05/16 03:28:46;;;;;;;42.97;4.13;;;;;;;24.20;53.10;99683.84;7308424;19;158272;-37
2022/05/16 03:31:11;;;;;;;21.48;2.42;;;;;;;24.13;53.73;99661.78;7308661;19;155577;-37
2022/05/16 03:33:36;;;;;;;17.17;1.80;;;;;;;24.23;53.73;99682.69;7307231;19;155158;-37
2022/05/16 03:36:02;;;;;;;37.38;3.45;;;;;;;24.22;53.89;99678.44;7306834;19;129098;-37
2022/05/16 03:41:13;;;;;;;40.38;4.13;;;;;;;24.22;53.86;99676.66;7310659;19;129164;-37
2022/05/16 03:43:40;;;;;;;21.15;2.20;;;;;;;24.19;53.20;99666.44;7311032;19;129218;-37
2022/05/16 03:46:05;;;;;;;38.45;4.18;;;;;;;24.20;53.80;99660.19;7307066;19;129452;-37
2022/05/16 03:48:32;;;;;;;14.75;1.67;;;;;;;24.21;53.55;99668.91;7310672;19;129174;-37
2022/05/16 03:50:57;;;;;;;20.42;2.25;;;;;;;24.20;53.37;99668.09;7310147;19;129621;-37
2022/05/16 03:53:22;;;;;;;25.83;2.73;;;;;;;24.20;53.11;99662.00;7310641;19;131522;-37
2022/05/16 03:55:48;;;;;;;22.85;2.63;;;;;;;24.22;54.26;99665.31;7311816;19;154734;-36
2022/05/16 03:58:13;;;;;;;20.73;2.67;;;;;;;24.18;53.77;99664.78;7315023;19;151294;-37
2022/05/16 04:00:38;;;;;;;24.83;2.60;;;;;;;24.11;53.64;99652.44;7315809;19;158891;-36
2022/05/16 04:03:04;;;;;;;18.85;2.03;;;;;;;24.21;53.59;99661.84;7316504;19;154421;-37
2022/05/16 04:05:29;;;;;;;53.07;5.07;;;;;;;24.19;53.68;99661.19;7314630;19;129108;-37
2022/05/16 04:07:55;;;;;;;15.57;1.80;;;;;;;24.16;53.43;99653.59;7318193;19;129107;-37
2022/05/16 04:10:21;;;;;;;32.57;3.33;;;;;;;24.18;53.24;99662.16;7314413;19;159387;-38
2022/05/16 04:12:46;;;;;;;13.83;1.47;;;;;;;24.22;53.79;99654.78;7317003;19;129271;-38
2022/05/16 04:15:13;;;;;;;21.77;2.10;;;;;;;24.18;53.07;99661.34;7315166;19;129269;-38
2022/05/16 04:17:39;;;;;;;29.33;2.92;;;;;;;24.16;53.24;99656.22;7314281;19;130361;-38
2022/05/16 04:20:06;;;;;;;31.33;3.35;;;;;;;24.05;52.92;99643.34;7312369;19;130991;-37
2022/05/16 04:22:34;;;;;;;29.92;3.03;;;;;;;24.14;54.24;99652.13;7312881;19;129900;-37
2022/05/16 04:24:59;;;;;;;28.17;2.83;;;;;;;24.14;53.17;99663.47;7315142;19;132646;-38
2022/05/16 04:27:25;;;;;;;22.83;2.53;;;;;;;24.18;53.50;99661.34;7312618;19;158485;-38
2022/05/16 04:29:50;;;;;;;18.63;1.83;;;;;;;24.19;53.72;99666.44;7313588;19;129299;-37
2022/05/16 04:32:15;;;;;;;27.57;2.77;;;;;;;24.18;52.66;99653.47;7314611;19;155109;-37
2022/05/16 04:34:41;;;;;;;30.05;3.33;;;;;;;24.17;53.42;99657.91;7311826;19;154058;-37
2022/05/16 04:37:06;;;;;;;12.43;1.35;;;;;;;24.21;53.87;99655.78;7310704;19;158832;-38
2022/05/16 04:39:31;;;;;;;39.38;3.75;;;;;;;24.12;53.84;99646.19;7312654;19;129879;-37
2022/05/16 04:44:40;;;;;;;32.28;3.10;;;;;;;24.10;53.13;99645.50;7316440;19;130672;-38
2022/05/16 04:47:07;;;;;;;18.67;1.92;;;;;;;24.17;53.82;99660.53;7309182;19;158599;-37
2022/05/16 04:49:33;;;;;;;;;;;;;;;24.26;54.23;99661.41;7312817;19;132649;-38
2022/05/16 04:51:59;;;;;;;36.05;3.17;;;;;;;24.19;54.01;99655.94;7312659;19;129353;-43
2022/05/16 04:54:25;;;;;;;19.30;2.15;;;;;;;24.15;53.01;99654.59;7312441;19;129294;-37
2022/05/16 04:56:51;;;;;;;42.28;4.05;;;;;;;24.16;53.81;99658.84;7309930;19;130442;-37
2022/05/16 04:59:20;;;;;;;24.00;2.17;;;;;;;24.18;53.64;99658.72;7313698;19;133118;-38
2022/05/16 05:01:47;;;;;;;32.42;3.05;;;;;;;24.15;53.23;99659.84;7308490;19;129372;-38
2022/05/16 05:04:12;;;;;;;10.52;1.30;;;;;;;24.17;53.13;99660.53;7314726;19;129087;-37
2022/05/16 05:06:39;;;;;;;20.05;2.15;;;;;;;24.16;53.78;99661.47;7312135;19;130718;-38
2022/05/16 05:09:05;;;;;;;27.38;2.35;;;;;;;24.17;53.24;99659.69;7312920;19;130387;-38
2022/05/16 05:14:32;;;;;;;35.20;3.55;;;;;;;24.17;53.81;99662.31;7313650;19;129106;-37
2022/05/16 05:16:58;;;;;;;34.20;3.35;;;;;;;24.12;53.25;99665.41;7308051;19;130729;-38
2022/05/16 05:19:23;;;;;;;17.83;1.67;;;;;;;24.11;53.85;99674.25;7313492;19;129404;-37
2022/05/16 05:21:49;;;;;;;31.70;3.08;;;;;;;24.03;53.76;99653.19;7309404;19;141007;-38
2022/05/16 05:24:15;;;;;;;29.27;2.83;;;;;;;24.16;53.73;99671.19;7314753;19;128992;-38
2022/05/16 05:26:42;;;;;;;21.40;2.37;;;;;;;24.15;53.14;99669.50;7310666;19;131114;-38
2022/05/16 05:29:08;;;;;;;37.80;3.90;;;;;;;24.14;53.21;99673.97;7312529;19;130665;-38
2022/05/16 05:31:34;;;;;;;25.08;2.53;;;;;;;24.16;53.47;99672.00;7313608;19;129743;-37
2022/05/16 05:33:59;;;;;;;18.17;2.22;;;;;;;24.14;53.46;99667.88;7312851;19;129086;-37
2022/05/16 05:36:25;;;;;;;140.07;14.03;;;;;;;24.18;53.82;99669.22;7288862;19;130581;-38
2022/05/16 05:38:51;;;;;;;143.65;14.45;;;;;;;24.15;53.62;99665.09;7302939;19;130558;-38
2022/05/16 05:41:18;;;;;;;32.97;3.20;;;;;;;24.14;53.88;99658.22;7312794;19;129711;-38
2022/05/16 05:43:44;;;;;;;25.00;2.67;;;;;;;24.14;53.91;99663.47;7311335;19;130301;-37
2022/05/16 05:46:09;;;;;;;42.22;4.22;;;;;;;24.03;53.44;99645.31;7304089;19;148309;-38
2022/05/16 05:48:35;;;;;;;8.25;1.17;;;;;;;24.12;53.43;99668.03;7311824;19;130612;-37
2022/05/16 05:51:00;;;;;;;31.77;3.17;;;;;;;23.97;54.25;99672.16;7310424;19;147617;-37
2022/05/16 05:53:25;;;;;;;31.23;2.97;;;;;;;23.95;53.98;99663.59;7307564;19;129896;-37
2022/05/16 05:55:51;;;;;;;21.50;2.23;;;;;;;24.01;53.78;99673.56;7309468;19;129312;-37
2022/05/16 05:58:16;;;;;;;36.63;3.72;;;;;;;23.98;53.88;99660.69;7309568;19;130010;-37
2022/05/16 06:00:43;;;;;;;29.15;2.85;;;;;;;23.99;53.56;99665.00;7313275;19;129854;-37
2022/05/16 06:03:08;;;;;;;38.88;3.90;;;;;;;24.02;52.64;99666.47;7311853;19;128942;-37
2022/05/16 06:05:34;;;;;;;42.17;4.37;;;;;;;24.10;53.74;99675.25;7308206;19;159824;-36
2022/05/16 06:07:59;;;;;;;23.50;2.47;;;;;;;24.07;53.26;99670.31;7312246;19;129965;-37
2022/05/16 06:10:25;;;;;;;25.13;2.47;;;;;;;24.07;53.17;99672.94;7311667;19;130640;-37
2022/05/16 06:12:50;;;;;;;43.90;3.97;;;;;;;24.05;53.10;99668.78;7312060;19;129144;-37
2022/05/16 06:15:17;;;;;;;50.80;5.27;;;;;;;24.10;53.80;99672.63;7309522;19;129154;-37
2022/05/16 06:17:43;;;;;;;34.78;3.42;;;;;;;24.09;53.98;99675.41;7308933;19;130019;-37
2022/05/16 06:20:10;;;;;;;44.22;4.15;;;;;;;24.06;53.57;99671.28;7308436;19;129445;-37
2022/05/16 06:22:36;;;;;;;24.55;2.42;;;;;;;24.03;53.30;99676.81;7309543;19;130990;-37
2022/05/16 06:25:31;;;;;;;17.15;2.25;;;;;;;24.06;54.03;99670.47;7311421;19;128995;-37
2022/05/16 06:28:18;;;;;;;28.60;2.78;;;;;;;24.11;54.02;99678.69;7310148;19;131251;-37
2022/05/16 06:30:47;;;;;;;45.75;4.50;;;;;;;24.05;54.11;99679.28;7308087;19;129691;-37
2022/05/16 06:33:14;;;;;;;51.33;4.57;;;;;;;24.03;52.91;99676.81;7304495;19;131592;-37
2022/05/16 06:35:40;;;;;;;58.47;5.40;;;;;;;24.03;52.91;99676.81;7302555;19;129302;-37
2022/05/16 06:38:11;;;;;;;22.63;2.33;;;;;;;24.00;53.61;99677.13;7306121;19;153062;-37
2022/05/16 06:40:38;;;;;;;45.90;4.25;;;;;;;24.04;53.43;99675.03;7305304;19;129931;-37
2022/05/16 06:43:03;;;;;;;26.10;2.63;;;;;;;24.03;53.45;99668.94;7308859;19;129279;-37
2022/05/16 06:45:29;;;;;;;57.92;5.78;;;;;;;24.03;52.54;99674.19;7305265;19;136755;-37
2022/05/16 06:47:55;;;;;;;17.92;1.92;;;;;;;24.05;53.93;99668.78;7306861;19;159835;-36
2022/05/16 06:50:20;;;;;;;17.83;2.22;;;;;;;23.95;53.42;99658.34;7310659;19;129022;-37
2022/05/16 06:52:46;;;;;;;22.17;2.40;;;;;;;24.04;53.51;99668.00;7304792;19;130322;-37
2022/05/16 06:55:11;;;;;;;34.20;3.35;;;;;;;24.04;53.48;99668.00;7309836;19;130346;-38
2022/05/16 06:57:37;;;;;;;31.30;3.20;;;;;;;24.02;53.52;99663.84;7309307;19;152224;-37
2022/05/16 07:00:06;;;;;;;19.23;2.10;;;;;;;23.99;53.86;99665.00;7310707;19;129029;-37
2022/05/16 07:02:32;;;;;;;26.17;2.72;;;;;;;24.07;54.13;99677.34;7310348;19;128971;-37
2022/05/16 07:04:58;;;;;;;30.98;3.03;;;;;;;23.94;53.17;99661.13;7311136;19;130314;-38
2022/05/16 07:07:23;;;;;;;20.53;2.13;;;;;;;24.05;53.82;99672.25;7309924;19;129844;-37
2022/05/16 07:09:49;;;;;;;20.40;2.08;;;;;;;24.02;54.27;99666.47;7311355;19;129078;-38
2022/05/16 07:12:14;;;;;;;17.58;1.90;;;;;;;24.03;54.30;99666.31;7309665;19;154366;-37
2022/05/16 07:14:39;;;;;;;20.95;2.47;;;;;;;24.02;53.86;99663.84;7310970;19;130069;-37
2022/05/16 07:17:06;;;;;;;22.53;2.27;;;;;;;24.08;53.23;99669.31;7306704;19;159236;-38
2022/05/16 07:19:34;;;;;;;;;;;;;;;24.10;53.66;99667.34;7308987;19;129072;-38
2022/05/16 07:22:00;;;;;;;18.42;1.80;;;;;;;24.06;53.62;99665.19;7311338;19;128980;-38
2022/05/16 07:24:25;;;;;;;24.37;2.47;;;;;;;24.03;53.99;99661.06;7311177;19;129917;-37
2022/05/16 07:29:34;;;;;;;24.98;2.60;;;;;;;24.04;53.82;99662.72;7312106;19;129189;-37
2022/05/16 07:31:59;;;;;;;20.33;2.27;;;;;;;24.01;54.16;99646.47;7316495;19;155721;-37
2022/05/16 07:34:24;;;;;;;23.17;2.30;;;;;;;24.04;53.65;99652.22;7315148;19;158286;-37
2022/05/16 07:36:50;;;;;;;21.77;2.33;;;;;;;24.04;52.97;99652.22;7312304;19;154082;-37
2022/05/16 07:39:15;;;;;;;18.88;2.20;;;;;;;24.03;53.50;99653.19;7315488;19;154455;-37
2022/05/16 07:41:40;;;;;;;33.60;3.55;;;;;;;24.07;53.69;99659.78;7310385;19;154071;-37
2022/05/16 07:44:06;;;;;;;29.08;2.88;;;;;;;24.06;53.29;99655.53;7317430;19;129409;-37
2022/05/16 07:46:31;;;;;;;32.50;3.20;;;;;;;24.06;54.06;99662.56;7315071;19;129454;-37
2022/05/16 07:48:56;;;;;;;18.02;2.00;;;;;;;24.08;53.33;99656.19;7316954;19;155098;-37
2022/05/16 07:51:21;;;;;;;22.23;2.17;;;;;;;24.08;54.32;99650.91;7312462;19;153947;-37
2022/05/16 07:53:47;;;;;;;29.10;2.75;;;;;;;24.00;54.03;99632.50;7315329;19;157464;-37
2022/05/16 07:56:12;;;;;;;22.37;2.27;;;;;;;24.08;53.92;99640.41;7312969;19;158782;-37
2022/05/16 07:58:37;;;;;;;15.65;1.73;;;;;;;24.07;53.46;99644.03;7314035;19;155519;-37
2022/05/16 08:01:03;;;;;;;26.38;2.83;;;;;;;24.08;53.69;99640.41;7314577;19;130078;-37
2022/05/16 08:03:30;;;;;;;5.80;0.83;;;;;;;24.06;53.25;99642.41;7320362;19;131045;-38
2022/05/16 08:05:56;;;;;;;;;;;;;;;24.16;53.97;99645.72;7312017;19;129988;-38
2022/05/16 08:11:06;;;;;;;22.67;2.35;;;;;;;24.08;53.75;99642.25;7316053;19;130121;-39
2022/05/16 08:13:32;;;;;;;31.88;3.15;;;;;;;24.06;53.30;99631.91;7316329;19;151823;-37
2022/05/16 08:15:58;;;;;;;26.17;2.72;;;;;;;24.07;54.19;99641.41;7306613;19;130589;-39
2022/05/16 08:18:24;;;;;;;15.95;1.67;;;;;;;24.03;53.45;99639.25;7316773;19;129154;-37
2022/05/16 08:20:51;;;;;;;39.03;3.77;;;;;;;24.08;54.28;99639.63;7308298;19;129456;-37
2022/05/16 08:23:18;;;;;;;;;;;;;;;24.14;53.85;99631.94;7317305;19;130704;-37
2022/05/16 08:25:44;;;;;;;30.00;3.17;;;;;;;24.07;54.23;99636.16;7308256;19;130295;-37
2022/05/16 08:28:09;;;;;;;37.55;3.92;;;;;;;24.09;53.80;99636.84;7312296;19;130305;-37
2022/05/16 08:30:35;;;;;;;19.02;1.83;;;;;;;24.05;53.50;99637.28;7311308;19;130649;-37
2022/05/16 08:33:01;;;;;;;28.85;2.85;;;;;;;24.05;53.34;99638.09;7313587;19;140829;-37
2022/05/16 08:35:27;;;;;;;19.90;2.00;;;;;;;24.07;54.34;99633.53;7313763;19;131112;-38
2022/05/16 08:41:05;;;;;;;27.02;2.90;;;;;;;24.00;53.81;99629.88;7308894;19;129219;-37
2022/05/16 08:43:49;;;;;;;19.92;2.05;;;;;;;24.07;53.81;99638.78;7312187;19;130569;-37
2022/05/16 08:46:38;;;;;;;33.55;3.47;;;;;;;24.06;53.96;99647.66;7309193;19;132236;-37
2022/05/16 08:49:13;;;;;;;26.75;2.75;;;;;;;24.05;53.99;99638.09;7312214;19;129614;-38
2022/05/16 08:51:39;;;;;;;29.58;3.00;;;;;;;24.06;54.21;99637.16;7313850;19;129608;-38
2022/05/16 08:54:11;;;;;;;39.92;3.40;;;;;;;24.08;53.93;99643.03;7308433;19;130231;-38
2022/05/16 08:56:39;;;;;;;20.65;2.25;;;;;;;24.06;53.84;99633.69;7311009;19;130355;-37
2022/05/16 08:59:16;;;;;;;27.25;2.90;;;;;;;24.06;53.96;99639.78;7313279;19;129129;-41
2022/05/16 09:01:51;;;;;;;26.92;2.55;;;;;;;24.11;53.94;99641.94;7313511;19;129988;-39
2022/05/16 09:04:30;;;;;;;26.02;2.70;;;;;;;23.97;54.13;99626.69;7309005;19;130181;-43
2022/05/16 09:07:01;;;;;;;41.70;4.20;;;;;;;24.08;54.11;99635.16;7302115;19;129540;-38
2022/05/16 09:09:42;;;;;;;40.47;4.18;;;;;;;24.09;53.92;99642.09;7309149;19;131279;-36
2022/05/16 09:12:21;;;;;;;31.83;3.10;;;;;;;24.08;53.55;99637.00;7310292;19;154416;-39
2022/05/16 09:15:08;;;;;;;40.50;3.63;;;;;;;24.06;53.76;99628.44;7306474;19;129477;-40
2022/05/16 09:18:01;;;;;;;31.63;3.25;;;;;;;24.10;53.83;99624.50;7310329;19;129491;-40
2022/05/16 09:20:49;;;;;;;31.20;3.28;;;;;;;24.06;53.34;99624.00;7311086;19;129740;-37
2022/05/16 09:23:48;;;;;;;27.52;3.08;;;;;;;24.01;52.83;99607.06;7312050;19;130540;-37
2022/05/16 09:26:26;;;;;;;29.92;3.42;;;;;;;24.10;53.10;99614.81;7310540;19;129994;-39
2022/05/16 09:28:57;;;;;;;;;;;;;;;24.18;52.82;99611.44;7311439;19;129365;-37
2022/05/16 09:31:27;;;;;;;35.03;3.88;;;;;;;23.97;53.37;99597.78;7308628;19;129364;-38
2022/05/16 09:33:56;;;;;;;18.58;2.20;;;;;;;23.98;54.04;99604.75;7312906;19;129067;-37
2022/05/16 09:36:33;;;;;;;37.35;3.97;;;;;;;23.95;53.01;99607.63;7306607;19;132204;-37
2022/05/16 09:38:58;;;;;;;;;;;;;;;24.00;53.89;99603.59;7313935;19;131002;-37
2022/05/16 09:41:44;;;;;;;35.93;3.57;;;;;;;23.99;53.71;99595.88;7311878;19;129811;-37
2022/05/16 09:44:14;;;;;;;33.35;3.58;;;;;;;23.93;52.78;99602.53;7310096;19;130833;-37
2022/05/16 09:46:43;;;;;;;10.60;1.50;;;;;;;23.91;53.13;99596.63;7309595;19;129667;-38
2022/05/16 09:49:11;;;;;;;66.43;6.68;;;;;;;23.92;53.07;99592.19;7309209;19;131593;-37
2022/05/16 09:51:41;;;;;;;29.52;3.38;;;;;;;23.92;53.57;99598.28;7312680;19;129305;-37
2022/05/16 09:54:35;;;;;;;40.25;4.55;;;;;;;23.96;54.17;99596.16;7310077;19;130074;-38
2022/05/16 09:57:03;;;;;;;25.02;2.55;;;;;;;23.84;53.97;99577.22;7309365;19;130978;-37
2022/05/16 09:59:38;;;;;;;22.33;2.25;;;;;;;23.95;54.47;99591.88;7311675;19;158461;-38
2022/05/16 10:02:16;;;;;;;40.78;4.15;;;;;;;23.95;53.57;99590.06;7305861;19;130315;-38
2022/05/16 10:04:46;;;;;;;30.38;3.33;;;;;;;23.98;53.66;99589.00;7312101;19;130041;-37
2022/05/16 10:07:12;;;;;;;17.52;2.03;;;;;;;23.96;53.39;99583.03;7310435;19;129812;-37
2022/05/16 10:09:46;;;;;;;30.23;2.95;;;;;;;23.95;54.07;99584.00;7312622;19;130546;-37
2022/05/16 10:12:15;;;;;;;26.65;2.92;;;;;;;23.95;53.82;99579.56;7305193;19;128948;-37
2022/05/16 10:14:42;;;;;;;18.98;2.30;;;;;;;23.90;53.35;99592.34;7309880;19;130251;-38
2022/05/16 10:17:09;;;;;;;;;;;;;;;24.07;53.47;99582.78;7305910;19;130179;-38
2022/05/16 10:19:38;;;;;;;27.48;2.80;;;;;;;23.95;52.55;99590.06;7310509;19;130313;-38
2022/05/16 10:22:15;;;;;;;24.60;2.63;;;;;;;23.96;53.70;99591.75;7312160;19;129061;-37
2022/05/16 10:24:52;;;;;;;22.13;2.70;;;;;;;23.91;53.86;99587.91;7309811;19;130049;-38
2022/05/16 10:27:26;;;;;;;32.65;3.55;;;;;;;23.85;53.60;99576.22;7304647;19;133288;-37
2022/05/16 10:29:54;;;;;;;24.15;2.70;;;;;;;23.91;53.29;99583.50;7312017;19;129638;-37
2022/05/16 10:35:29;;;;;;;27.73;2.95;;;;;;;23.90;53.48;99581.84;7310320;19;129230;-38
2022/05/16 10:37:58;;;;;;;20.80;2.20;;;;;;;23.88;54.11;99562.78;7310989;19;130418;-38
2022/05/16 10:40:34;;;;;;;31.75;3.78;;;;;;;23.93;53.51;99578.09;7310638;19;129959;-37
2022/05/16 10:43:06;;;;;;;13.65;2.20;;;;;;;23.93;53.28;99565.75;7308543;19;129938;-41
2022/05/16 10:45:31;;;;;;;51.15;5.55;;;;;;;23.92;53.78;99566.75;7308631;19;129185;-38
2022/05/16 10:48:39;;;;;;;60.10;6.28;;;;;;;23.86;54.49;99538.50;7305996;19;158558;-38
2022/05/16 10:51:33;;;;;;;22.98;2.75;;;;;;;23.92;54.11;99545.75;7308748;19;130896;-41
2022/05/16 10:54:11;;;;;;;19.88;2.53;;;;;;;23.95;54.22;99555.09;7305279;19;129963;-39
2022/05/16 10:57:07;;;;;;;27.13;2.95;;;;;;;23.99;54.14;99544.19;7307593;19;129717;-38
2022/05/16 10:59:43;;;;;;;20.38;2.10;;;;;;;23.93;53.82;99536.88;7305346;19;130502;-40
2022/05/16 11:02:46;;;;;;;22.75;2.65;;;;;;;23.99;54.42;99541.56;7309900;19;129504;-38
2022/05/16 11:05:42;;;;;;;42.28;4.20;;;;;;;24.03;54.29;99544.69;7306260;19;129355;-41
2022/05/16 11:08:37;;;;;;;56.88;5.80;;;;;;;23.99;54.41;99538.94;7309345;19;129357;-41
2022/05/16 11:11:25;;;;;;;26.45;2.75;;;;;;;23.95;53.99;99534.94;7306648;19;129135;-37
2022/05/16 11:14:19;;;;;;;19.90;2.50;;;;;;;24.01;54.43;99542.22;7311907;19;129561;-36
2022/05/16 11:16:45;;;;;;;29.40;3.13;;;;;;;23.69;48.95;99536.75;7302779;19;129813;-37
2022/05/16 11:19:34;;;;;;;24.77;2.60;;;;;;;23.44;47.76;99534.09;7310517;19;128868;-38
2022/05/16 11:22:13;;;;;;;20.33;2.42;;;;;;;23.40;47.13;99530.97;7305793;19;158522;-39
2022/05/16 11:24:46;;;;;;;55.05;5.57;;;;;;;23.21;47.50;99531.09;7309246;19;131226;-38
2022/05/16 11:27:25;;;;;;;24.00;2.75;;;;;;;23.13;47.44;99525.81;7310292;19;130933;-38
2022/05/16 11:30:03;;;;;;;31.42;3.17;;;;;;;23.08;47.80;99523.63;7311130;19;129509;-38
2022/05/16 11:33:06;;;;;;;17.92;2.17;;;;;;;23.07;47.20;99529.03;7311409;19;129449;-37
2022/05/16 11:35:40;;;;;;;53.80;5.35;;;;;;;23.08;46.92;99523.63;7308377;19;130012;-43
2022/05/16 11:38:13;;;;;;;14.60;2.03;;;;;;;23.10;47.75;99518.25;7310364;19;129564;-37
2022/05/16 11:41:12;;;;;;;16.35;1.95;;;;;;;23.06;47.20;99514.25;7308409;19;153136;-39
2022/05/16 11:43:44;;;;;;;27.48;3.15;;;;;;;23.04;46.79;99510.97;7308937;19;129199;-37
2022/05/16 11:46:09;;;;;;;37.20;3.92;;;;;;;23.00;47.36;99504.38;7307786;19;129433;-38
2022/05/16 11:48:45;;;;;;;14.88;1.90;;;;;;;23.07;46.97;99510.69;7308872;19;154451;-41
2022/05/16 11:51:22;;;;;;;41.47;3.95;;;;;;;23.10;46.39;99507.75;7309096;19;129203;-38
2022/05/16 11:53:50;;;;;;;;;;;;;;;22.99;46.75;99494.88;7311088;19;129326;-37
2022/05/16 12:02:18;;;;;;;16.20;1.83;;;;;;;23.10;46.61;99507.75;7309899;19;129126;-42